Updated08/08/2020 5:26am 
 

Nearby Airport METAR Reports

 

KVSF - Springfield, Vermont, USA
Distance from station: WSW 8mi, 12km
Updated: 08/08/2020 4:54am
Light rain, Overcast
Light rain, Overcast
 Wind from calm
Wind: Calm
Temperature: 64°F , 18°C
Dew Point: 64°F , 18°C
Humidity: 100%
Barometer: 30.17 inHg , 1021.7 hPa
Summary: Light rain
Clouds: Overcast
Visibility: 10 miles , 16 km
Cloud details: Overcast 5000 ft
2020/08/08 08:54 KVSF 080854Z AUTO 00000KT 10SM -RA OVC050 18/18 A3017 RMK AO2 RAB18 SLP215 P0008 60008 T01830178 58002
KLEB - Lebanon, New Hampshire, USA
Distance from station: N 18mi, 29km
Updated: 08/08/2020 4:53am
Light rain, Overcast
Light rain, Overcast
 Wind from NNE
Wind: NNE 6 mph , 9 km/h
Temperature: 66°F , 19°C
Dew Point: 63°F , 17°C
Humidity: 88%
Barometer: 30.18 inHg , 1022 hPa
Summary: Light rain
Clouds: Overcast
Visibility: 9 miles , 14 km
Cloud details: Overcast 4900 ft
2020/08/08 08:53 KLEB 080853Z AUTO 02005KT 9SM -RA OVC049 19/17 A3018 RMK AO2 RAE02B17 SLP207 P0001 60006 T01890172 50002
KRUT - Rutland State, Vermont, USA
Distance from station: WNW 31mi, 50km
Updated: 08/08/2020 5:21am
Nearby thunderstorm, Light rain, Overcast
Nearby thunderstorm, Light rain, Overcast
 Wind from SSE
Wind: SSE 3 mph , 6 km/h
Temperature: 64°F , 18°C
Dew Point: 64°F , 18°C
Humidity: 100%
Barometer: 30.18 inHg , 1022 hPa
Summary: Nearby thunderstorm, Light rain
Clouds: Overcast
Visibility: 10 miles , 16 km
Cloud details: Overcast 4200 ft
2020/08/08 09:21 KRUT 080921Z AUTO 15003KT 10SM VCTS -RA OVC042 18/18 A3018 RMK AO2 TSB10RAB04 P0000 $
 
KEEN - Keene/Dillant, New Hampshire, USA
Distance from station: S 34mi, 55km
Updated: 08/08/2020 4:56am
Overcast
Overcast
 Wind from SSW
Wind: SSW 3 mph , 6 km/h
Temperature: 63°F , 17°C
Dew Point: 61°F , 16°C
Humidity: 94%
Barometer: 30.18 inHg , 1022 hPa
Clouds: Overcast
Visibility: 10 miles , 16 km
Cloud details: Mostly cloudy 7500 ft
Overcast 10000 ft
2020/08/08 08:56 KEEN 080856Z AUTO 20003KT 10SM BKN075 OVC100 17/16 A3018 RMK AO2 SLP221 T01720161 56001 $
K1P1 - Plymouth, New Hampshire, USA
Distance from station: NE 42mi, 67km
Updated: 08/08/2020 5:15am
Mist, Overcast
Mist, Overcast
 
Temperature: 61°F , 16°C
Dew Point: 59°F , 15°C
Humidity: 94%
Barometer: 30.18 inHg , 1022 hPa
Summary: Mist
Clouds: Overcast
Visibility: 5 miles , 8 km
Cloud details: Mostly cloudy 8500 ft
Overcast 12000 ft
2020/08/08 09:15 K1P1 080915Z AUTO 5SM BR BKN085 OVC120 16/15 A3018 RMK AO2 LTG DSNT SW AND W T01600152
KAFN - Jaffrey, New Hampshire, USA
Distance from station: SSE 44mi, 70km
Updated: 08/08/2020 4:52am
Overcast
Overcast
 Wind from calm
Wind: Calm
Temperature: 61°F , 16°C
Dew Point: 59°F , 15°C
Humidity: 94%
Barometer: 30.20 inHg , 1022.7 hPa
Clouds: Overcast
Visibility: 10 miles , 16 km
Cloud details: Partly cloudy 6000 ft
Overcast 9000 ft
2020/08/08 08:52 KAFN 080852Z AUTO 00000KT 10SM SCT060 OVC090 16/15 A3020 RMK AO2 SLP226 T01610150 55001
 
KCON - Concord, New Hampshire, USA
Distance from station: ESE 45mi, 73km
Updated: 08/08/2020 4:51am
Overcast
Overcast
 Wind from ENE
Wind: ENE 3 mph , 6 km/h
Temperature: 64°F , 18°C
Dew Point: 59°F , 15°C
Humidity: 83%
Barometer: 30.17 inHg , 1021.7 hPa
Clouds: Overcast
Visibility: 10 miles , 16 km
Cloud details: Mostly cloudy 7000 ft
Overcast 11000 ft
2020/08/08 08:51 KCON 080851Z AUTO 07003KT 10SM BKN070 OVC110 18/15 A3017 RMK AO2 SLP214 T01830150 58003 $
KLCI - Laconia Muni, New Hampshire, USA
Distance from station: ENE 49mi, 80km
Updated: 08/08/2020 4:56am
Light rain, Overcast
Light rain, Overcast
 Wind from calm
Wind: Calm
Temperature: 64°F , 18°C
Dew Point: 64°F , 18°C
Humidity: 100%
Barometer: 30.18 inHg , 1022 hPa
Summary: Light rain
Clouds: Overcast
Visibility: 10 miles , 16 km
Cloud details: Overcast 9000 ft
2020/08/08 08:56 KLCI 080856Z AUTO 00000KT 10SM -RA OVC090 18/18 A3018 RMK AO2 RAB21E36B54 SLP217 P0000 60000 T01780178 58003
KDDH - Bennington, Vermont, USA
Distance from station: SW 55mi, 89km
Updated: 08/08/2020 4:54am
Nearby thunderstorm, Light rain, Overcast
Nearby thunderstorm, Light rain, Overcast
 Wind from SSE
Wind: SSE 5 mph , 7 km/h
Temperature: 66°F , 19°C
Dew Point: 63°F , 17°C
Humidity: 88%
Barometer: 30.17 inHg , 1021.7 hPa
Summary: Nearby thunderstorm, Light rain
Clouds: Overcast
Visibility: 7 miles , 11 km
Cloud details: Overcast 3600 ft
2020/08/08 08:54 KDDH 080854Z AUTO 15004KT 7SM VCTS -RA OVC036 19/17 A3017 RMK AO2 LTG DSNT SW RAB44 SLP213 P0001 60001 T01890172 53002
 
K6B0 - Middlebury, Vermont, USA
Distance from station: NW 56mi, 90km
Updated: 08/08/2020 5:15am
Nearby thunderstorm, Clear
Nearby thunderstorm, Clear
 Wind from calm
Wind: Calm
Temperature: 63°F , 17°C
Dew Point: 59°F , 15°C
Humidity: 88%
Barometer: 30.16 inHg , 1021.3 hPa
Summary: Nearby Thunderstorm
Clouds: Clear
Visibility: 10 miles , 16 km
2020/08/08 09:15 K6B0 080915Z AUTO 00000KT 10SM VCTS CLR 17/15 A3016 RMK AO2 LTG DSNT S T01650151
KMHT - Manchester, New Hampshire, USA
Distance from station: ESE 56mi, 90km
Updated: 08/08/2020 4:53am
Mostly cloudy
Mostly cloudy
 Wind from calm
Wind: Calm
Temperature: 68°F , 20°C
Dew Point: 63°F , 17°C
Humidity: 83%
Barometer: 30.15 inHg , 1021 hPa
Clouds: Mostly cloudy
Visibility: 10 miles , 16 km
Cloud details: Partly cloudy 9500 ft
Mostly cloudy 25000 ft
2020/08/08 08:53 KMHT 080853Z 00000KT 10SM SCT095 BKN250 20/17 A3015 RMK AO2 SLP219 T02000167 55001
KORE - Orange, Massachusetts, USA
Distance from station: S 56mi, 90km
Updated: 08/08/2020 4:52am
Overcast
Overcast
 Wind from ENE
Wind: ENE 3 mph , 6 km/h
Temperature: 64°F , 18°C
Dew Point: 63°F , 17°C
Humidity: 94%
Barometer: 30.18 inHg , 1022 hPa
Clouds: Overcast
Visibility: 10 miles , 16 km
Cloud details: Overcast 6500 ft
2020/08/08 08:52 KORE 080852Z AUTO 06003KT 10SM OVC065 18/17 A3018 RMK AO2 SLP217 T01780167 58002
 
KMPV - Montpelier/Barre, Vermont, USA
Distance from station: N 58mi, 93km
Updated: 08/08/2020 4:51am
Few Clouds
Few Clouds
 Wind from calm
Wind: Calm
Temperature: 57°F , 14°C
Dew Point: 55°F , 13°C
Humidity: 94%
Barometer: 30.23 inHg , 1023.7 hPa
Clouds: Few Clouds
Visibility: 10 miles , 16 km
Cloud details: Few Clouds 4600 ft
2020/08/08 08:51 KMPV 080851Z AUTO 00000KT 10SM FEW046 14/13 A3023 RMK AO2 SLP234 T01390133 58001
KASH - Nashua/Boire Fld, New Hampshire, USA
Distance from station: SE 59mi, 95km
Updated: 08/08/2020 4:56am
Mostly cloudy
Mostly cloudy
 Wind from calm
Wind: Calm
Temperature: 63°F , 17°C
Dew Point: 63°F , 17°C
Humidity: 100%
Barometer: 30.17 inHg , 1021.7 hPa
Clouds: Mostly cloudy
Visibility: 10 miles , 16 km
Cloud details: Mostly cloudy 9000 ft
2020/08/08 08:56 KASH 080856Z AUTO 00000KT 10SM BKN090 17/17 A3017 RMK AO2 SLP221 T01720172 55002
KAQW - North Adams, Massachusetts, USA
Distance from station: SW 62mi, 99km
Updated: 08/08/2020 5:21am
Light rain, Mist, Overcast
Light rain, Mist, Overcast
 Wind from E
Wind: E 3 mph , 6 km/h
Temperature: 66°F , 19°C
Dew Point: 64°F , 18°C
Humidity: 94%
Barometer: 30.18 inHg , 1022 hPa
Summary: Light rain, Mist
Clouds: Overcast
Visibility: 4 miles , 6 km
Cloud details: Mostly cloudy 7000 ft
Overcast 8000 ft
2020/08/08 09:21 KAQW 080921Z AUTO 08003KT 4SM -RA BR BKN070 OVC080 19/18 A3018 RMK AO2 LTG DSNT W-NE P0007 T01890178
 
KGFL - Glens Falls, New York, USA
Distance from station: W 63mi, 101km
Updated: 08/08/2020 4:53am
Light rain, Overcast
Light rain, Overcast
 Wind from WNW
Wind: WNW 3 mph , 6 km/h
Temperature: 66°F , 19°C
Dew Point: 63°F , 17°C
Humidity: 88%
Barometer: 30.15 inHg , 1021 hPa
Summary: Light rain
Clouds: Overcast
Visibility: 10 miles , 16 km
Cloud details: Partly cloudy 5000 ft
Partly cloudy 8000 ft
Overcast 10000 ft
2020/08/08 08:53 KGFL 080853Z AUTO 30003KT 10SM -RA SCT050 SCT080 OVC100 19/17 A3015 RMK AO2 RAB43 SLP208 P0000 60000 T01890172 58001 TSNO
KFIT - Fitchburg, Massachusetts, USA
Distance from station: SSE 65mi, 105km
Updated: 08/08/2020 4:52am
Partly cloudy
Partly cloudy
 Wind from calm
Wind: Calm
Temperature: 64°F , 18°C
Dew Point: 59°F , 15°C
Humidity: 83%
Barometer: 30.17 inHg , 1021.7 hPa
Clouds: Partly cloudy
Visibility: 10 miles , 16 km
Cloud details: Partly cloudy 10000 ft
2020/08/08 08:52 KFIT 080852Z AUTO 00000KT 10SM SCT100 18/15 A3017 RMK AO2 SLP217 T01830150 55002
KDAW - Rochester, New Hampshire, USA
Distance from station: E 73mi, 118km
Updated: 08/08/2020 4:51am
Few Clouds
Few Clouds
 Wind from NW
Wind: NW 3 mph , 6 km/h
Temperature: 63°F , 17°C
Dew Point: 57°F , 14°C
Humidity: 83%
Barometer: 30.16 inHg , 1021.3 hPa
Clouds: Few Clouds
Visibility: 10 miles , 16 km
Cloud details: Few Clouds 11000 ft
2020/08/08 08:51 KDAW 080851Z AUTO 31003KT 10SM FEW110 17/14 A3016 RMK AO2 SLP210 T01670144 55002
 
K1V4 - St. Johnsbury, Vermont, USA
Distance from station: NNE 74mi, 119km
Updated: 08/08/2020 4:54am

 
Temperature: 55°F , 13°C
Dew Point: 54°F , 12°C
Humidity: 94%
Barometer: 30.18 inHg , 1022 hPa
2020/08/08 08:54 K1V4 080854Z AUTO 13/12 A3018 RMK AO1 SLP212 T01330122 50001
KLWM - Lawrence, Massachusetts, USA
Distance from station: SE 77mi, 124km
Updated: 08/08/2020 4:54am
Few Clouds
Few Clouds
 Wind from calm
Wind: Calm
Temperature: 66°F , 19°C
Dew Point: 63°F , 17°C
Humidity: 88%
Barometer: 30.18 inHg , 1022 hPa
Clouds: Few Clouds
Visibility: 10 miles , 16 km
Cloud details: Few Clouds 9500 ft
2020/08/08 08:54 KLWM 080854Z AUTO 00000KT 10SM FEW095 19/17 A3018 RMK AO2 SLP218 T01890172 58000



Flag Counter
free counter page views since 4/29/2009